sensor_id;sensor_type;location;lat;lon;timestamp;pressure;altitude;pressure_sealevel;temperature;humidity
9899;BME280;4988;49.238;6.698;2023-08-06T00:01:10;98202.06;;;14.79;100.00
9899;BME280;4988;49.238;6.698;2023-08-06T00:03:35;98200.34;;;14.90;100.00
9899;BME280;4988;49.238;6.698;2023-08-06T00:06:01;98187.16;;;14.75;100.00
9899;BME280;4988;49.238;6.698;2023-08-06T00:08:27;98191.44;;;14.78;100.00
9899;BME280;4988;49.238;6.698;2023-08-06T00:10:52;98180.84;;;14.88;100.00
9899;BME280;4988;49.238;6.698;2023-08-06T00:13:17;98184.00;;;14.82;100.00
9899;BME280;4988;49.238;6.698;2023-08-06T00:15:43;98177.19;;;14.77;100.00
9899;BME280;4988;49.238;6.698;2023-08-06T00:18:08;98181.31;;;14.70;100.00
9899;BME280;4988;49.238;6.698;2023-08-06T00:20:33;98185.09;;;14.68;100.00
9899;BME280;4988;49.238;6.698;2023-08-06T00:22:59;98185.22;;;14.66;100.00
9899;BME280;4988;49.238;6.698;2023-08-06T00:25:24;98181.78;;;14.64;100.00
9899;BME280;4988;49.238;6.698;2023-08-06T00:27:49;98176.78;;;14.59;100.00
9899;BME280;4988;49.238;6.698;2023-08-06T00:30:15;98180.69;;;14.55;100.00
9899;BME280;4988;49.238;6.698;2023-08-06T00:32:40;98175.94;;;14.47;100.00
9899;BME280;4988;49.238;6.698;2023-08-06T00:35:06;98174.72;;;14.52;100.00
9899;BME280;4988;49.238;6.698;2023-08-06T00:37:31;98174.44;;;14.43;100.00
9899;BME280;4988;49.238;6.698;2023-08-06T00:39:56;98175.88;;;14.36;100.00
9899;BME280;4988;49.238;6.698;2023-08-06T00:42:22;98179.03;;;14.30;100.00
9899;BME280;4988;49.238;6.698;2023-08-06T00:44:48;98184.16;;;14.22;100.00
9899;BME280;4988;49.238;6.698;2023-08-06T00:47:13;98172.34;;;14.24;100.00
9899;BME280;4988;49.238;6.698;2023-08-06T00:49:39;98175.63;;;14.17;100.00
9899;BME280;4988;49.238;6.698;2023-08-06T00:52:05;98184.34;;;14.07;100.00
9899;BME280;4988;49.238;6.698;2023-08-06T00:54:32;98181.88;;;14.04;100.00
9899;BME280;4988;49.238;6.698;2023-08-06T00:56:59;98187.97;;;14.06;100.00
9899;BME280;4988;49.238;6.698;2023-08-06T00:59:26;98183.59;;;14.05;100.00
9899;BME280;4988;49.238;6.698;2023-08-06T01:01:51;98181.41;;;14.10;100.00
9899;BME280;4988;49.238;6.698;2023-08-06T01:04:16;98183.84;;;14.02;100.00
9899;BME280;4988;49.238;6.698;2023-08-06T01:06:48;98181.03;;;14.04;100.00
9899;BME280;4988;49.238;6.698;2023-08-06T01:09:35;98178.97;;;13.96;100.00
9899;BME280;4988;49.238;6.698;2023-08-06T01:15:34;98178.72;;;13.99;100.00
9899;BME280;4988;49.238;6.698;2023-08-06T01:18:00;98179.75;;;14.09;100.00
9899;BME280;4988;49.238;6.698;2023-08-06T01:20:28;98177.69;;;14.13;100.00
9899;BME280;4988;49.238;6.698;2023-08-06T01:22:53;98184.09;;;14.10;100.00
9899;BME280;4988;49.238;6.698;2023-08-06T01:25:19;98187.38;;;14.14;100.00
9899;BME280;4988;49.238;6.698;2023-08-06T01:27:47;98183.06;;;14.24;100.00
9899;BME280;4988;49.238;6.698;2023-08-06T01:30:16;98183.41;;;14.20;100.00
9899;BME280;4988;49.238;6.698;2023-08-06T01:32:44;98162.81;;;14.09;100.00
9899;BME280;4988;49.238;6.698;2023-08-06T01:35:12;98176.03;;;13.99;100.00
9899;BME280;4988;49.238;6.698;2023-08-06T01:37:40;98179.69;;;13.98;100.00
9899;BME280;4988;49.238;6.698;2023-08-06T01:40:12;98179.94;;;13.95;100.00
9899;BME280;4988;49.238;6.698;2023-08-06T01:42:38;98188.53;;;13.87;100.00
9899;BME280;4988;49.238;6.698;2023-08-06T01:45:05;98179.88;;;13.83;100.00
9899;BME280;4988;49.238;6.698;2023-08-06T01:47:30;98180.50;;;13.87;100.00
9899;BME280;4988;49.238;6.698;2023-08-06T01:49:55;98183.53;;;13.82;100.00
9899;BME280;4988;49.238;6.698;2023-08-06T01:52:21;98179.88;;;13.83;100.00
9899;BME280;4988;49.238;6.698;2023-08-06T01:54:46;98181.94;;;13.80;100.00
9899;BME280;4988;49.238;6.698;2023-08-06T01:57:11;98182.91;;;13.79;100.00
9899;BME280;4988;49.238;6.698;2023-08-06T01:59:37;98173.91;;;13.80;100.00
9899;BME280;4988;49.238;6.698;2023-08-06T02:02:02;98175.97;;;13.76;100.00
9899;BME280;4988;49.238;6.698;2023-08-06T02:04:28;98176.72;;;13.78;100.00
9899;BME280;4988;49.238;6.698;2023-08-06T02:06:53;98169.13;;;13.72;100.00
9899;BME280;4988;49.238;6.698;2023-08-06T02:09:18;98172.03;;;13.69;100.00
9899;BME280;4988;49.238;6.698;2023-08-06T02:11:43;98176.75;;;13.65;100.00
9899;BME280;4988;49.238;6.698;2023-08-06T02:14:09;98174.19;;;13.64;100.00
9899;BME280;4988;49.238;6.698;2023-08-06T02:16:34;98167.97;;;13.63;100.00
9899;BME280;4988;49.238;6.698;2023-08-06T02:18:59;98177.09;;;13.61;100.00
9899;BME280;4988;49.238;6.698;2023-08-06T02:21:25;98174.41;;;13.61;100.00
9899;BME280;4988;49.238;6.698;2023-08-06T02:23:50;98173.44;;;13.62;100.00
9899;BME280;4988;49.238;6.698;2023-08-06T02:26:15;98169.25;;;13.71;100.00
9899;BME280;4988;49.238;6.698;2023-08-06T02:28:41;98170.56;;;13.65;100.00
9899;BME280;4988;49.238;6.698;2023-08-06T02:31:06;98162.88;;;13.60;100.00
9899;BME280;4988;49.238;6.698;2023-08-06T02:33:32;98153.47;;;13.55;100.00
9899;BME280;4988;49.238;6.698;2023-08-06T02:36:01;98161.84;;;13.50;100.00
9899;BME280;4988;49.238;6.698;2023-08-06T02:38:27;98158.19;;;13.51;100.00
9899;BME280;4988;49.238;6.698;2023-08-06T02:40:52;98158.63;;;13.58;100.00
9899;BME280;4988;49.238;6.698;2023-08-06T02:43:17;98153.06;;;13.72;100.00
9899;BME280;4988;49.238;6.698;2023-08-06T02:45:42;98150.34;;;13.61;100.00
9899;BME280;4988;49.238;6.698;2023-08-06T02:48:08;98148.94;;;13.68;100.00
9899;BME280;4988;49.238;6.698;2023-08-06T02:50:40;98151.84;;;13.65;100.00
9899;BME280;4988;49.238;6.698;2023-08-06T02:53:06;98155.38;;;13.65;100.00
9899;BME280;4988;49.238;6.698;2023-08-06T02:55:32;98153.19;;;13.71;100.00
9899;BME280;4988;49.238;6.698;2023-08-06T02:57:58;98144.16;;;13.60;100.00
9899;BME280;4988;49.238;6.698;2023-08-06T03:00:24;98154.44;;;13.54;100.00
9899;BME280;4988;49.238;6.698;2023-08-06T03:02:49;98142.56;;;13.58;100.00
9899;BME280;4988;49.238;6.698;2023-08-06T03:05:14;98140.41;;;13.63;100.00
9899;BME280;4988;49.238;6.698;2023-08-06T03:07:40;98139.19;;;13.67;100.00
9899;BME280;4988;49.238;6.698;2023-08-06T03:10:05;98141.25;;;13.63;100.00
9899;BME280;4988;49.238;6.698;2023-08-06T03:12:31;98132.50;;;13.61;100.00
9899;BME280;4988;49.238;6.698;2023-08-06T03:14:56;98141.88;;;13.67;100.00
9899;BME280;4988;49.238;6.698;2023-08-06T03:17:21;98132.59;;;13.60;100.00
9899;BME280;4988;49.238;6.698;2023-08-06T03:19:47;98136.00;;;13.62;100.00
9899;BME280;4988;49.238;6.698;2023-08-06T03:22:12;98138.69;;;13.62;100.00
9899;BME280;4988;49.238;6.698;2023-08-06T03:24:37;98131.47;;;13.51;100.00
9899;BME280;4988;49.238;6.698;2023-08-06T03:27:02;98136.00;;;13.62;100.00
9899;BME280;4988;49.238;6.698;2023-08-06T03:29:28;98149.84;;;13.56;100.00
9899;BME280;4988;49.238;6.698;2023-08-06T03:31:53;98149.09;;;13.54;100.00
9899;BME280;4988;49.238;6.698;2023-08-06T03:34:19;98132.34;;;13.51;100.00
9899;BME280;4988;49.238;6.698;2023-08-06T03:36:44;98132.84;;;13.57;100.00
9899;BME280;4988;49.238;6.698;2023-08-06T03:39:10;98125.28;;;13.50;100.00
9899;BME280;4988;49.238;6.698;2023-08-06T03:41:35;98128.69;;;13.53;100.00
9899;BME280;4988;49.238;6.698;2023-08-06T03:44:00;98129.66;;;13.51;100.00
9899;BME280;4988;49.238;6.698;2023-08-06T03:46:28;98128.44;;;13.56;100.00
9899;BME280;4988;49.238;6.698;2023-08-06T03:48:53;98135.97;;;13.50;100.00
9899;BME280;4988;49.238;6.698;2023-08-06T03:51:18;98129.38;;;13.43;100.00
9899;BME280;4988;49.238;6.698;2023-08-06T03:53:44;98139.72;;;13.48;100.00
9899;BME280;4988;49.238;6.698;2023-08-06T03:56:09;98125.91;;;13.54;100.00
9899;BME280;4988;49.238;6.698;2023-08-06T03:58:34;98122.81;;;13.47;100.00
9899;BME280;4988;49.238;6.698;2023-08-06T04:01:00;98120.16;;;13.47;100.00
9899;BME280;4988;49.238;6.698;2023-08-06T04:03:26;98122.59;;;13.50;100.00
9899;BME280;4988;49.238;6.698;2023-08-06T04:05:51;98132.56;;;13.48;100.00
9899;BME280;4988;49.238;6.698;2023-08-06T04:08:17;98134.25;;;13.49;100.00
9899;BME280;4988;49.238;6.698;2023-08-06T04:10:42;98126.75;;;13.55;100.00
9899;BME280;4988;49.238;6.698;2023-08-06T04:13:07;98125.28;;;13.50;100.00
9899;BME280;4988;49.238;6.698;2023-08-06T04:15:36;98137.44;;;13.55;100.00
9899;BME280;4988;49.238;6.698;2023-08-06T04:18:01;98124.94;;;13.55;100.00
9899;BME280;4988;49.238;6.698;2023-08-06T04:20:26;98136.97;;;13.61;100.00
9899;BME280;4988;49.238;6.698;2023-08-06T04:22:54;98119.63;;;13.66;100.00
9899;BME280;4988;49.238;6.698;2023-08-06T04:25:19;98134.34;;;13.72;100.00
9899;BME280;4988;49.238;6.698;2023-08-06T04:27:47;98135.06;;;13.63;100.00
9899;BME280;4988;49.238;6.698;2023-08-06T04:30:12;98134.09;;;13.64;100.00
9899;BME280;4988;49.238;6.698;2023-08-06T04:32:38;98131.41;;;13.64;100.00
9899;BME280;4988;49.238;6.698;2023-08-06T04:35:04;98136.00;;;13.62;100.00
9899;BME280;4988;49.238;6.698;2023-08-06T04:37:29;98132.88;;;13.68;100.00
9899;BME280;4988;49.238;6.698;2023-08-06T04:39:55;98124.34;;;13.63;100.00
9899;BME280;4988;49.238;6.698;2023-08-06T04:42:20;98130.09;;;13.70;100.00
9899;BME280;4988;49.238;6.698;2023-08-06T04:44:45;98120.88;;;13.74;100.00
9899;BME280;4988;49.238;6.698;2023-08-06T04:47:10;98117.91;;;13.65;100.00
9899;BME280;4988;49.238;6.698;2023-08-06T04:49:36;98122.13;;;13.81;100.00
9899;BME280;4988;49.238;6.698;2023-08-06T04:52:01;98123.91;;;13.69;100.00
9899;BME280;4988;49.238;6.698;2023-08-06T04:54:26;98117.72;;;13.69;100.00
9899;BME280;4988;49.238;6.698;2023-08-06T04:56:52;98131.16;;;13.67;100.00
9899;BME280;4988;49.238;6.698;2023-08-06T04:59:17;98120.84;;;13.62;100.00
9899;BME280;4988;49.238;6.698;2023-08-06T05:01:42;98127.41;;;13.70;100.00
9899;BME280;4988;49.238;6.698;2023-08-06T05:04:08;98126.69;;;13.67;100.00
9899;BME280;4988;49.238;6.698;2023-08-06T05:06:33;98130.44;;;13.65;100.00
9899;BME280;4988;49.238;6.698;2023-08-06T05:08:58;98134.72;;;13.67;100.00
9899;BME280;4988;49.238;6.698;2023-08-06T05:11:24;98138.84;;;13.72;100.00
9899;BME280;4988;49.238;6.698;2023-08-06T05:13:50;98140.06;;;13.67;100.00
9899;BME280;4988;49.238;6.698;2023-08-06T05:16:15;98140.78;;;13.70;100.00
9899;BME280;4988;49.238;6.698;2023-08-06T05:18:40;98145.28;;;13.69;100.00
9899;BME280;4988;49.238;6.698;2023-08-06T05:21:06;98152.84;;;13.75;100.00
9899;BME280;4988;49.238;6.698;2023-08-06T05:23:32;98148.81;;;13.70;100.00
9899;BME280;4988;49.238;6.698;2023-08-06T05:25:57;98156.81;;;13.70;100.00
9899;BME280;4988;49.238;6.698;2023-08-06T05:28:22;98162.72;;;13.75;100.00
9899;BME280;4988;49.238;6.698;2023-08-06T05:30:48;98166.69;;;13.69;100.00
9899;BME280;4988;49.238;6.698;2023-08-06T05:33:13;98173.63;;;13.72;100.00
9899;BME280;4988;49.238;6.698;2023-08-06T05:35:40;98169.13;;;13.72;100.00
9899;BME280;4988;49.238;6.698;2023-08-06T05:38:06;98176.94;;;13.75;100.00
9899;BME280;4988;49.238;6.698;2023-08-06T05:40:33;98177.56;;;13.79;100.00
9899;BME280;4988;49.238;6.698;2023-08-06T05:42:58;98183.97;;;13.76;100.00
9899;BME280;4988;49.238;6.698;2023-08-06T05:45:24;98189.22;;;13.78;100.00
9899;BME280;4988;49.238;6.698;2023-08-06T05:47:49;98192.63;;;13.80;100.00
9899;BME280;4988;49.238;6.698;2023-08-06T05:50:15;98201.38;;;13.82;100.00
9899;BME280;4988;49.238;6.698;2023-08-06T05:52:40;98198.50;;;13.85;100.00
9899;BME280;4988;49.238;6.698;2023-08-06T05:55:06;98201.03;;;13.87;100.00
9899;BME280;4988;49.238;6.698;2023-08-06T05:57:31;98202.00;;;13.86;100.00
9899;BME280;4988;49.238;6.698;2023-08-06T05:59:56;98202.53;;;13.91;100.00
9899;BME280;4988;49.238;6.698;2023-08-06T06:02:22;98203.50;;;13.90;100.00
9899;BME280;4988;49.238;6.698;2023-08-06T06:04:47;98201.78;;;13.89;100.00
9899;BME280;4988;49.238;6.698;2023-08-06T06:07:12;98205.44;;;13.88;100.00
9899;BME280;4988;49.238;6.698;2023-08-06T06:09:39;98204.59;;;13.87;100.00
9899;BME280;4988;49.238;6.698;2023-08-06T06:12:05;98199.88;;;13.91;100.00
9899;BME280;4988;49.238;6.698;2023-08-06T06:14:30;98202.53;;;13.91;100.00
9899;BME280;4988;49.238;6.698;2023-08-06T06:16:56;98212.78;;;13.97;100.00
9899;BME280;4988;49.238;6.698;2023-08-06T06:19:21;98208.28;;;13.97;100.00
9899;BME280;4988;49.238;6.698;2023-08-06T06:21:46;98223.03;;;14.03;100.00
9899;BME280;4988;49.238;6.698;2023-08-06T06:24:12;98214.13;;;14.03;100.00
9899;BME280;4988;49.238;6.698;2023-08-06T06:26:38;98218.13;;;13.97;100.00
9899;BME280;4988;49.238;6.698;2023-08-06T06:29:03;98221.97;;;13.93;100.00
9899;BME280;4988;49.238;6.698;2023-08-06T06:31:28;98228.31;;;13.92;100.00
9899;BME280;4988;49.238;6.698;2023-08-06T06:33:54;98223.47;;;13.97;100.00
9899;BME280;4988;49.238;6.698;2023-08-06T06:36:20;98232.47;;;13.96;100.00
9899;BME280;4988;49.238;6.698;2023-08-06T06:38:45;98235.38;;;13.93;100.00
9899;BME280;4988;49.238;6.698;2023-08-06T06:41:10;98238.91;;;13.93;100.00
9899;BME280;4988;49.238;6.698;2023-08-06T06:43:36;98243.63;;;13.90;100.00
9899;BME280;4988;49.238;6.698;2023-08-06T06:46:03;98242.44;;;13.94;100.00
9899;BME280;4988;49.238;6.698;2023-08-06T06:48:32;98250.63;;;14.04;100.00
9899;BME280;4988;49.238;6.698;2023-08-06T06:50:57;98246.09;;;14.04;100.00
9899;BME280;4988;49.238;6.698;2023-08-06T06:53:23;98254.88;;;14.06;100.00
9899;BME280;4988;49.238;6.698;2023-08-06T06:55:53;98259.41;;;14.06;100.00
9899;BME280;4988;49.238;6.698;2023-08-06T06:58:19;98267.31;;;14.07;100.00
9899;BME280;4988;49.238;6.698;2023-08-06T07:00:45;98268.38;;;14.05;100.00
9899;BME280;4988;49.238;6.698;2023-08-06T07:03:11;98271.91;;;14.05;100.00
9899;BME280;4988;49.238;6.698;2023-08-06T07:05:36;98276.28;;;14.06;100.00
9899;BME280;4988;49.238;6.698;2023-08-06T07:08:01;98264.47;;;13.97;100.00
9899;BME280;4988;49.238;6.698;2023-08-06T07:10:27;98272.38;;;13.99;100.00
9899;BME280;4988;49.238;6.698;2023-08-06T07:12:52;98273.31;;;13.98;100.00
9899;BME280;4988;49.238;6.698;2023-08-06T07:15:17;98277.22;;;13.94;100.00
9899;BME280;4988;49.238;6.698;2023-08-06T07:17:43;98278.16;;;13.93;100.00
9899;BME280;4988;49.238;6.698;2023-08-06T07:20:08;98276.25;;;13.95;100.00
9899;BME280;4988;49.238;6.698;2023-08-06T07:22:34;98285.22;;;13.94;100.00
9899;BME280;4988;49.238;6.698;2023-08-06T07:24:59;98288.81;;;13.81;100.00
9899;BME280;4988;49.238;6.698;2023-08-06T07:27:27;98294.63;;;13.75;100.00
9899;BME280;4988;49.238;6.698;2023-08-06T07:29:53;98303.41;;;13.77;100.00
9899;BME280;4988;49.238;6.698;2023-08-06T07:32:18;98311.31;;;13.79;100.00
9899;BME280;4988;49.238;6.698;2023-08-06T07:34:43;98325.00;;;13.74;100.00
9899;BME280;4988;49.238;6.698;2023-08-06T07:37:09;98321.25;;;13.77;100.00
9899;BME280;4988;49.238;6.698;2023-08-06T07:39:34;98331.22;;;13.75;100.00
9899;BME280;4988;49.238;6.698;2023-08-06T07:41:59;98335.31;;;13.67;100.00
9899;BME280;4988;49.238;6.698;2023-08-06T07:44:27;98326.53;;;13.65;100.00
9899;BME280;4988;49.238;6.698;2023-08-06T07:46:52;98343.22;;;13.69;100.00
9899;BME280;4988;49.238;6.698;2023-08-06T07:49:18;98341.50;;;13.68;100.00
9899;BME280;4988;49.238;6.698;2023-08-06T07:51:43;98333.47;;;13.68;100.00
9899;BME280;4988;49.238;6.698;2023-08-06T07:54:08;98342.88;;;13.74;100.00
9899;BME280;4988;49.238;6.698;2023-08-06T07:56:34;98334.63;;;13.77;100.00
9899;BME280;4988;49.238;6.698;2023-08-06T07:59:01;98329.19;;;13.78;100.00
9899;BME280;4988;49.238;6.698;2023-08-06T08:01:26;98341.50;;;13.68;100.00
9899;BME280;4988;49.238;6.698;2023-08-06T08:03:51;98339.91;;;13.65;100.00
9899;BME280;4988;49.238;6.698;2023-08-06T08:06:17;98350.06;;;13.60;100.00
9899;BME280;4988;49.238;6.698;2023-08-06T08:08:42;98342.38;;;13.56;100.00
9899;BME280;4988;49.238;6.698;2023-08-06T08:11:07;98342.38;;;13.56;100.00
9899;BME280;4988;49.238;6.698;2023-08-06T08:13:33;98353.06;;;13.56;100.00
9899;BME280;4988;49.238;6.698;2023-08-06T08:16:01;98360.56;;;13.50;100.00
9899;BME280;4988;49.238;6.698;2023-08-06T08:18:26;98361.09;;;13.56;100.00
9899;BME280;4988;49.238;6.698;2023-08-06T08:20:52;98370.72;;;13.58;100.00
9899;BME280;4988;49.238;6.698;2023-08-06T08:23:18;98361.31;;;13.53;100.00
9899;BME280;4988;49.238;6.698;2023-08-06T08:25:43;98377.69;;;13.48;100.00
9899;BME280;4988;49.238;6.698;2023-08-06T08:28:08;98375.13;;;13.46;100.00
9899;BME280;4988;49.238;6.698;2023-08-06T08:30:34;98379.34;;;13.36;100.00
9899;BME280;4988;49.238;6.698;2023-08-06T08:32:59;98381.94;;;13.38;100.00
9899;BME280;4988;49.238;6.698;2023-08-06T08:35:25;98382.81;;;13.38;100.00
9899;BME280;4988;49.238;6.698;2023-08-06T08:37:50;98390.06;;;13.36;100.00
9899;BME280;4988;49.238;6.698;2023-08-06T08:40:16;98400.34;;;13.42;100.00
9899;BME280;4988;49.238;6.698;2023-08-06T08:42:42;98390.41;;;13.44;100.00
9899;BME280;4988;49.238;6.698;2023-08-06T08:45:13;98407.41;;;13.43;100.00
9899;BME280;4988;49.238;6.698;2023-08-06T08:47:43;98405.50;;;13.45;100.00
9899;BME280;4988;49.238;6.698;2023-08-06T08:50:09;98410.94;;;13.44;100.00
9899;BME280;4988;49.238;6.698;2023-08-06T08:52:38;98418.94;;;13.44;100.00
9899;BME280;4988;49.238;6.698;2023-08-06T08:55:04;98418.75;;;13.47;100.00
9899;BME280;4988;49.238;6.698;2023-08-06T08:57:31;98418.22;;;13.55;100.00
9899;BME280;4988;49.238;6.698;2023-08-06T08:59:57;98421.63;;;13.57;100.00
9899;BME280;4988;49.238;6.698;2023-08-06T09:02:23;98433.28;;;13.56;100.00
9899;BME280;4988;49.238;6.698;2023-08-06T09:04:50;98425.16;;;13.57;100.00
9899;BME280;4988;49.238;6.698;2023-08-06T09:07:19;98430.84;;;13.53;100.00
9899;BME280;4988;49.238;6.698;2023-08-06T09:09:47;98428.47;;;13.61;100.00
9899;BME280;4988;49.238;6.698;2023-08-06T09:12:15;98439.94;;;13.63;100.00
9899;BME280;4988;49.238;6.698;2023-08-06T09:14:41;98430.41;;;13.59;100.00
9899;BME280;4988;49.238;6.698;2023-08-06T09:17:07;98447.41;;;13.58;100.00
9899;BME280;4988;49.238;6.698;2023-08-06T09:19:34;98449.03;;;13.60;100.00
9899;BME280;4988;49.238;6.698;2023-08-06T09:21:59;98444.44;;;13.62;100.00
9899;BME280;4988;49.238;6.698;2023-08-06T09:24:25;98454.25;;;13.62;100.00
9899;BME280;4988;49.238;6.698;2023-08-06T09:26:51;98471.78;;;13.66;100.00
9899;BME280;4988;49.238;6.698;2023-08-06T09:29:17;98476.63;;;13.74;100.00
9899;BME280;4988;49.238;6.698;2023-08-06T09:31:44;98478.63;;;13.83;100.00
9899;BME280;4988;49.238;6.698;2023-08-06T09:34:30;98481.03;;;13.75;100.00
9899;BME280;4988;49.238;6.698;2023-08-06T09:36:55;98482.19;;;13.83;100.00
9899;BME280;4988;49.238;6.698;2023-08-06T09:39:28;98485.81;;;13.82;100.00
9899;BME280;4988;49.238;6.698;2023-08-06T09:41:57;98492.88;;;13.83;100.00
9899;BME280;4988;49.238;6.698;2023-08-06T09:44:24;98489.56;;;13.80;100.00
9899;BME280;4988;49.238;6.698;2023-08-06T09:46:53;98499.63;;;13.76;100.00
9899;BME280;4988;49.238;6.698;2023-08-06T09:49:22;98501.66;;;13.73;100.00
9899;BME280;4988;49.238;6.698;2023-08-06T09:51:47;98513.53;;;13.69;100.00
9899;BME280;4988;49.238;6.698;2023-08-06T09:54:16;98501.13;;;13.80;100.00
9899;BME280;4988;49.238;6.698;2023-08-06T09:56:42;98516.19;;;13.94;100.00
9899;BME280;4988;49.238;6.698;2023-08-06T09:59:08;98513.97;;;14.01;100.00
9899;BME280;4988;49.238;6.698;2023-08-06T10:01:35;98508.81;;;13.98;100.00
9899;BME280;4988;49.238;6.698;2023-08-06T10:04:01;98519.72;;;14.08;100.00
9899;BME280;4988;49.238;6.698;2023-08-06T10:06:28;98529.59;;;14.07;100.00
9899;BME280;4988;49.238;6.698;2023-08-06T10:08:54;98521.56;;;14.07;100.00
9899;BME280;4988;49.238;6.698;2023-08-06T10:11:22;98517.16;;;14.19;100.00
9899;BME280;4988;49.238;6.698;2023-08-06T10:13:50;98513.41;;;14.22;100.00
9899;BME280;4988;49.238;6.698;2023-08-06T10:16:18;98530.53;;;14.19;100.00
9899;BME280;4988;49.238;6.698;2023-08-06T10:18:45;98526.34;;;14.28;100.00
9899;BME280;4988;49.238;6.698;2023-08-06T10:21:11;98524.63;;;14.27;100.00
9899;BME280;4988;49.238;6.698;2023-08-06T10:23:40;98538.22;;;14.37;100.00
9899;BME280;4988;49.238;6.698;2023-08-06T10:26:06;98531.34;;;14.32;100.00
9899;BME280;4988;49.238;6.698;2023-08-06T10:28:37;98536.19;;;14.40;100.00
9899;BME280;4988;49.238;6.698;2023-08-06T10:31:03;98526.63;;;14.49;100.00
9899;BME280;4988;49.238;6.698;2023-08-06T10:33:45;98528.63;;;14.71;100.00
9899;BME280;4988;49.238;6.698;2023-08-06T10:36:11;98534.69;;;14.86;100.00
9899;BME280;4988;49.238;6.698;2023-08-06T10:38:50;98527.63;;;15.09;100.00
9899;BME280;4988;49.238;6.698;2023-08-06T10:41:29;98524.06;;;15.33;100.00
9899;BME280;4988;49.238;6.698;2023-08-06T10:44:07;98533.66;;;15.24;100.00
9899;BME280;4988;49.238;6.698;2023-08-06T10:46:36;98536.78;;;15.18;100.00
9899;BME280;4988;49.238;6.698;2023-08-06T10:49:03;98538.72;;;15.16;100.00
9899;BME280;4988;49.238;6.698;2023-08-06T10:51:29;98537.03;;;15.15;100.00
9899;BME280;4988;49.238;6.698;2023-08-06T10:53:54;98557.56;;;15.03;100.00
9899;BME280;4988;49.238;6.698;2023-08-06T10:56:23;98554.31;;;15.11;100.00
9899;BME280;4988;49.238;6.698;2023-08-06T10:58:51;98555.28;;;15.10;98.68
9899;BME280;4988;49.238;6.698;2023-08-06T11:01:17;98560.25;;;15.03;100.00
9899;BME280;4988;49.238;6.698;2023-08-06T11:03:43;98571.81;;;15.04;100.00
9899;BME280;4988;49.238;6.698;2023-08-06T11:06:10;98564.59;;;14.80;100.00
9899;BME280;4988;49.238;6.698;2023-08-06T11:08:37;98568.09;;;14.43;100.00
9899;BME280;4988;49.238;6.698;2023-08-06T11:11:13;98570.25;;;14.38;100.00
9899;BME280;4988;49.238;6.698;2023-08-06T11:13:43;98582.69;;;14.13;100.00
9899;BME280;4988;49.238;6.698;2023-08-06T11:16:11;98588.44;;;14.20;100.00
9899;BME280;4988;49.238;6.698;2023-08-06T11:18:36;98576.13;;;14.43;100.00
9899;BME280;4988;49.238;6.698;2023-08-06T11:21:02;98586.72;;;14.58;100.00
9899;BME280;4988;49.238;6.698;2023-08-06T11:23:28;98572.78;;;14.66;100.00
9899;BME280;4988;49.238;6.698;2023-08-06T11:25:54;98580.25;;;14.86;100.00
9899;BME280;4988;49.238;6.698;2023-08-06T11:28:20;98584.41;;;14.90;100.00
9899;BME280;4988;49.238;6.698;2023-08-06T11:30:51;98586.03;;;14.93;100.00
9899;BME280;4988;49.238;6.698;2023-08-06T11:33:21;98586.44;;;14.87;100.00
9899;BME280;4988;49.238;6.698;2023-08-06T11:35:48;98591.44;;;15.04;100.00
9899;BME280;4988;49.238;6.698;2023-08-06T11:38:13;98591.38;;;15.17;100.00
9899;BME280;4988;49.238;6.698;2023-08-06T11:40:39;98585.69;;;15.22;100.00
9899;BME280;4988;49.238;6.698;2023-08-06T11:43:05;98592.59;;;15.37;97.65
9899;BME280;4988;49.238;6.698;2023-08-06T11:45:31;98592.72;;;15.47;100.00
9899;BME280;4988;49.238;6.698;2023-08-06T11:47:56;98597.09;;;15.37;98.71
9899;BME280;4988;49.238;6.698;2023-08-06T11:50:27;98592.34;;;15.40;100.00
9899;BME280;4988;49.238;6.698;2023-08-06T11:52:56;98587.41;;;15.23;100.00
9899;BME280;4988;49.238;6.698;2023-08-06T11:55:24;98612.97;;;15.03;100.00
9899;BME280;4988;49.238;6.698;2023-08-06T11:57:49;98613.16;;;14.88;100.00
9899;BME280;4988;49.238;6.698;2023-08-06T12:00:15;98627.63;;;14.86;100.00
9899;BME280;4988;49.238;6.698;2023-08-06T12:02:43;98629.69;;;14.69;100.00
9899;BME280;4988;49.238;6.698;2023-08-06T12:05:16;98629.25;;;14.75;100.00
9899;BME280;4988;49.238;6.698;2023-08-06T12:07:43;98629.63;;;14.95;99.22
9899;BME280;4988;49.238;6.698;2023-08-06T12:10:09;98631.84;;;15.14;97.82
9899;BME280;4988;49.238;6.698;2023-08-06T12:12:35;98621.06;;;15.27;97.17
9899;BME280;4988;49.238;6.698;2023-08-06T12:15:03;98636.66;;;15.46;94.58
9899;BME280;4988;49.238;6.698;2023-08-06T12:17:29;98617.03;;;15.57;93.13
9899;BME280;4988;49.238;6.698;2023-08-06T12:19:54;98617.63;;;15.73;94.31
9899;BME280;4988;49.238;6.698;2023-08-06T12:22:20;98617.81;;;15.83;91.31
9899;BME280;4988;49.238;6.698;2023-08-06T12:24:46;98614.28;;;15.94;90.16
9899;BME280;4988;49.238;6.698;2023-08-06T12:27:12;98623.63;;;16.13;94.63
9899;BME280;4988;49.238;6.698;2023-08-06T12:29:42;98603.38;;;16.31;90.29
9899;BME280;4988;49.238;6.698;2023-08-06T12:32:09;98608.53;;;16.46;89.40
9899;BME280;4988;49.238;6.698;2023-08-06T12:34:34;98617.91;;;16.51;87.28
9899;BME280;4988;49.238;6.698;2023-08-06T12:36:59;98613.41;;;16.63;87.26
9899;BME280;4988;49.238;6.698;2023-08-06T12:39:25;98624.50;;;16.70;82.53
9899;BME280;4988;49.238;6.698;2023-08-06T12:41:53;98621.94;;;16.80;85.96
9899;BME280;4988;49.238;6.698;2023-08-06T12:44:18;98624.63;;;16.57;83.71
9899;BME280;4988;49.238;6.698;2023-08-06T12:46:44;98629.16;;;16.45;84.69
9899;BME280;4988;49.238;6.698;2023-08-06T12:49:09;98620.94;;;16.35;85.90
9899;BME280;4988;49.238;6.698;2023-08-06T12:51:34;98637.53;;;16.18;83.04
9899;BME280;4988;49.238;6.698;2023-08-06T12:54:00;98646.75;;;16.02;84.11
9899;BME280;4988;49.238;6.698;2023-08-06T12:56:25;98656.38;;;15.94;85.90
9899;BME280;4988;49.238;6.698;2023-08-06T12:58:51;98669.28;;;15.88;87.45
9899;BME280;4988;49.238;6.698;2023-08-06T13:01:16;98669.09;;;15.54;90.95
9899;BME280;4988;49.238;6.698;2023-08-06T13:03:41;98666.66;;;15.51;90.85
9899;BME280;4988;49.238;6.698;2023-08-06T13:06:07;98665.78;;;15.51;91.42
9899;BME280;4988;49.238;6.698;2023-08-06T13:08:34;98663.09;;;15.51;92.37
9899;BME280;4988;49.238;6.698;2023-08-06T13:10:59;98662.91;;;15.54;91.29